createdAt,value
2022-08-22T00:00:37.232Z,98290.34
2022-08-22T00:03:03.384Z,98201.28
2022-08-22T00:03:10.807Z,98178.63
2022-08-22T00:03:11.930Z,98221.06
2022-08-22T00:03:17.601Z,98289.03
2022-08-22T00:05:48.054Z,98301.84
2022-08-22T00:08:23.957Z,98296.19
2022-08-22T00:10:59.319Z,98256.50
2022-08-22T00:13:42.744Z,98293.34
2022-08-22T00:16:15.851Z,98296.00
2022-08-22T00:18:55.698Z,98227.78
2022-08-22T00:21:31.199Z,98225.16
2022-08-22T00:24:09.943Z,98298.69
2022-08-22T00:27:02.904Z,98294.22
2022-08-22T00:29:49.602Z,98272.09
2022-08-22T00:32:45.045Z,98282.34
2022-08-22T00:35:45.236Z,98218.44
2022-08-22T00:38:33.803Z,98235.22
2022-08-22T00:41:28.594Z,98282.19
2022-08-22T00:44:34.202Z,98275.59
2022-08-22T00:47:03.851Z,98279.53
2022-08-22T00:49:55.373Z,98282.47
2022-08-22T00:52:37.456Z,98279.47
2022-08-22T00:55:39.660Z,98261.94
2022-08-22T00:58:37.884Z,98278.03
2022-08-22T01:01:09.141Z,98226.03
2022-08-22T01:03:45.044Z,98267.44
2022-08-22T01:06:37.367Z,98271.59
2022-08-22T01:09:31.605Z,98272.81
2022-08-22T01:12:30.248Z,98272.28
2022-08-22T01:15:06.674Z,98276.81
2022-08-22T01:18:12.010Z,98266.97
2022-08-22T01:21:12.659Z,98281.44
2022-08-22T01:24:16.961Z,98285.09
2022-08-22T01:26:59.415Z,98278.19
2022-08-22T01:29:47.365Z,98283.34
2022-08-22T01:32:57.349Z,98244.50
2022-08-22T01:35:45.106Z,98267.66
2022-08-22T01:38:43.969Z,98278.09
2022-08-22T01:41:19.845Z,98281.72
2022-08-22T01:44:09.977Z,98242.13
2022-08-22T01:46:55.259Z,98287.63
2022-08-22T01:49:31.644Z,98292.03
2022-08-22T01:52:04.638Z,98292.19
2022-08-22T01:54:48.979Z,98290.59
2022-08-22T01:57:17.561Z,98280.72
2022-08-22T01:59:50.292Z,98291.56
2022-08-22T02:02:48.086Z,98299.28
2022-08-22T02:05:34.941Z,98296.63
2022-08-22T02:08:23.582Z,98293.94
2022-08-22T02:11:10.143Z,98228.81
2022-08-22T02:13:47.751Z,98279.84
2022-08-22T02:16:42.619Z,98312.88
2022-08-22T02:19:15.331Z,98311.22
2022-08-22T02:21:56.757Z,98265.34
2022-08-22T02:24:38.766Z,98314.50
2022-08-22T02:27:31.528Z,98311.44
2022-08-22T02:30:05.938Z,98263.72
2022-08-22T02:32:41.759Z,98300.59
2022-08-22T02:35:28.866Z,98243.53
2022-08-22T02:38:21.033Z,98266.19
2022-08-22T02:40:53.957Z,98286.59
2022-08-22T02:43:26.812Z,98293.09
2022-08-22T02:46:23.216Z,98253.34
2022-08-22T02:48:54.952Z,98290.19
2022-08-22T02:51:24.588Z,98297.13
2022-08-22T02:54:41.735Z,98295.88
2022-08-22T02:57:17.107Z,98292.66
2022-08-22T03:00:31.172Z,98294.69
2022-08-22T03:02:58.802Z,98289.38
2022-08-22T03:05:37.526Z,98286.94
2022-08-22T03:08:22.071Z,98288.59
2022-08-22T03:11:01.255Z,98287.56
2022-08-22T03:13:48.068Z,98232.38
2022-08-22T03:16:40.266Z,98280.88
2022-08-22T03:19:20.130Z,98225.66
2022-08-22T03:22:00.472Z,98270.69
2022-08-22T03:24:38.838Z,98281.28
2022-08-22T03:27:17.404Z,98220.97
2022-08-22T03:30:12.380Z,98232.75
2022-08-22T03:33:19.120Z,98213.22
2022-08-22T03:35:45.693Z,98282.91
2022-08-22T03:38:18.264Z,98284.13
2022-08-22T03:40:44.886Z,98277.59
2022-08-22T03:43:20.342Z,98277.78
2022-08-22T03:46:09.409Z,98287.94
2022-08-22T03:48:42.130Z,98280.63
2022-08-22T03:51:39.230Z,98224.41
2022-08-22T03:54:30.634Z,98286.16
2022-08-22T03:57:06.515Z,98291.47
2022-08-22T03:59:42.465Z,98284.53
2022-08-22T04:02:43.652Z,98291.84
2022-08-22T04:05:37.931Z,98290.41
2022-08-22T04:08:37.129Z,98289.00
2022-08-22T04:11:39.354Z,98291.00
2022-08-22T04:14:12.096Z,98297.31
2022-08-22T04:17:06.435Z,98295.06
2022-08-22T04:19:59.991Z,98221.91
2022-08-22T04:22:41.639Z,98306.16
2022-08-22T04:25:16.664Z,98250.72
2022-08-22T04:27:49.202Z,98305.53
2022-08-22T04:30:42.138Z,98287.03
2022-08-22T04:33:25.980Z,98249.81
2022-08-22T04:36:01.786Z,98309.94
2022-08-22T04:38:42.073Z,98256.78
2022-08-22T04:41:17.013Z,98218.25
2022-08-22T04:43:51.660Z,98257.69
2022-08-22T04:46:36.804Z,98300.16
2022-08-22T04:49:32.342Z,98268.75
2022-08-22T04:52:18.122Z,98321.75
2022-08-22T04:55:09.786Z,98326.81
2022-08-22T04:57:49.065Z,98329.91
2022-08-22T05:00:16.903Z,98340.31
2022-08-22T05:02:51.406Z,98275.09
2022-08-22T05:05:25.918Z,98296.69
2022-08-22T05:07:57.179Z,98304.59
2022-08-22T05:10:35.401Z,98275.03
2022-08-22T05:13:07.306Z,98269.59
2022-08-22T05:15:37.442Z,98345.47
2022-08-22T05:18:29.857Z,98304.47
2022-08-22T05:21:01.126Z,98331.38
2022-08-22T05:23:48.049Z,98286.97
2022-08-22T05:26:17.508Z,98293.91
2022-08-22T05:28:52.949Z,98311.97
2022-08-22T05:31:34.704Z,98354.06
2022-08-22T05:34:10.777Z,98357.41
2022-08-22T05:36:43.159Z,98312.53
2022-08-22T05:39:22.297Z,98348.00
2022-08-22T05:41:55.129Z,98352.31
2022-08-22T05:44:34.148Z,98298.47
2022-08-22T05:47:24.434Z,98357.06
2022-08-22T05:50:12.825Z,98313.91
2022-08-22T05:52:58.548Z,98340.25
2022-08-22T05:55:50.486Z,98300.63
2022-08-22T05:58:20.193Z,98348.72
2022-08-22T06:00:52.220Z,98294.28
2022-08-22T06:03:33.038Z,98354.50
2022-08-22T06:06:06.948Z,98353.94
2022-08-22T06:08:39.291Z,98308.56
2022-08-22T06:11:19.294Z,98325.19
2022-08-22T06:14:01.576Z,98311.78
2022-08-22T06:16:48.672Z,98363.13
2022-08-22T06:19:19.837Z,98332.72
2022-08-22T06:21:50.819Z,98356.03
2022-08-22T06:24:24.902Z,98343.97
2022-08-22T06:26:54.998Z,98339.84
2022-08-22T06:29:34.740Z,98295.31
2022-08-22T06:32:09.697Z,98359.81
2022-08-22T06:34:40.770Z,98290.19
2022-08-22T06:37:15.310Z,98282.56
2022-08-22T06:39:45.608Z,98303.03
2022-08-22T06:42:16.945Z,98310.53
2022-08-22T06:44:51.047Z,98311.31
2022-08-22T06:47:52.949Z,98350.81
2022-08-22T06:50:32.198Z,98352.59
2022-08-22T06:53:14.514Z,98346.94
2022-08-22T06:55:47.712Z,98318.34
2022-08-22T06:58:20.366Z,98345.84
2022-08-22T07:00:58.877Z,98332.09
2022-08-22T07:03:43.568Z,98293.34
2022-08-22T07:06:17.253Z,98342.00
2022-08-22T07:08:44.821Z,98338.88
2022-08-22T07:11:29.496Z,98328.03
2022-08-22T07:14:08.422Z,98338.53
2022-08-22T07:17:02.810Z,98325.94
2022-08-22T07:19:40.162Z,98350.22
2022-08-22T07:22:33.987Z,98294.19
2022-08-22T07:25:03.670Z,98343.22
2022-08-22T07:27:58.681Z,98349.19
2022-08-22T07:30:36.899Z,98314.41
2022-08-22T07:33:25.907Z,98318.59
2022-08-22T07:36:07.035Z,98343.34
2022-08-22T07:38:41.105Z,98357.91
2022-08-22T07:41:19.710Z,98352.91
2022-08-22T07:43:55.334Z,98323.06
2022-08-22T07:46:40.037Z,98356.31
2022-08-22T07:49:26.371Z,98313.84
2022-08-22T07:51:57.458Z,98338.34
2022-08-22T07:54:28.663Z,98302.38
2022-08-22T07:57:01.183Z,98306.31
2022-08-22T07:59:30.974Z,98297.03
2022-08-22T08:02:01.100Z,98278.88
2022-08-22T08:04:39.520Z,98336.41
2022-08-22T08:07:09.987Z,98285.44
2022-08-22T08:09:45.655Z,98365.44
2022-08-22T08:12:14.809Z,98364.09
2022-08-22T08:14:45.330Z,98303.84
2022-08-22T08:17:14.968Z,98363.38
2022-08-22T08:19:43.102Z,98311.81
2022-08-22T08:22:17.071Z,98273.06
2022-08-22T08:24:45.355Z,98296.00
2022-08-22T08:27:20.544Z,98348.84
2022-08-22T08:29:54.047Z,98361.00
2022-08-22T08:32:24.302Z,98260.31
2022-08-22T08:34:52.052Z,98321.00
2022-08-22T08:37:48.199Z,98359.53
2022-08-22T08:40:33.772Z,98189.19
2022-08-22T08:43:13.000Z,98363.25
2022-08-22T08:45:59.077Z,98269.09
2022-08-22T08:48:34.244Z,98348.19
2022-08-22T08:51:24.017Z,98329.94
2022-08-22T08:54:30.051Z,98348.50
2022-08-22T08:57:24.092Z,98312.41
2022-08-22T08:59:53.946Z,98350.91
2022-08-22T09:02:45.338Z,98270.19
2022-08-22T09:08:40.007Z,98349.09
2022-08-22T09:11:27.078Z,98342.38
2022-08-22T09:13:55.387Z,98347.06
2022-08-22T09:16:38.799Z,98291.44
2022-08-22T09:19:49.383Z,98334.69
2022-08-22T09:22:25.221Z,98359.19
2022-08-22T09:25:17.302Z,98358.63
2022-08-22T09:28:21.518Z,98349.53
2022-08-22T09:31:00.251Z,98342.03
2022-08-22T09:33:37.960Z,98321.81
2022-08-22T09:36:19.917Z,98230.25
2022-08-22T09:39:05.877Z,98261.88
2022-08-22T09:41:43.899Z,98274.31
2022-08-22T09:44:34.987Z,98240.84
2022-08-22T09:47:24.695Z,98336.44
2022-08-22T09:50:07.966Z,98340.44
2022-08-22T09:53:05.729Z,98342.41
2022-08-22T09:56:15.002Z,98332.97
2022-08-22T09:58:54.351Z,98332.91
2022-08-22T10:02:01.300Z,98328.34
2022-08-22T10:05:04.034Z,98303.19
2022-08-22T10:07:40.059Z,98300.66
2022-08-22T10:10:21.853Z,98314.56
2022-08-22T10:13:14.278Z,98327.38
2022-08-22T10:16:01.452Z,98265.84
2022-08-22T10:18:36.860Z,98245.28
2022-08-22T10:21:20.154Z,98250.69
2022-08-22T10:23:59.321Z,98241.97
2022-08-22T10:26:46.267Z,98281.69
2022-08-22T10:29:24.506Z,98299.78
2022-08-22T10:32:07.384Z,98175.75
2022-08-22T10:34:46.964Z,98207.47
2022-08-22T10:37:23.766Z,98298.97
2022-08-22T10:40:15.979Z,98294.53
2022-08-22T10:43:02.646Z,98241.44
2022-08-22T10:45:43.845Z,98295.53
2022-08-22T10:48:10.591Z,98291.06
2022-08-22T10:50:49.186Z,98177.44
2022-08-22T10:53:28.303Z,98282.03
2022-08-22T10:56:11.262Z,98227.94
2022-08-22T10:58:44.074Z,98265.53
2022-08-22T11:01:37.886Z,98273.97
2022-08-22T11:04:20.406Z,98272.78
2022-08-22T11:07:18.111Z,98279.38
2022-08-22T11:09:58.529Z,98194.66
2022-08-22T11:12:34.905Z,98173.19
2022-08-22T11:15:28.491Z,98272.94
2022-08-22T11:19:01.833Z,98268.31
2022-08-22T11:21:51.015Z,98181.84
2022-08-22T11:24:53.937Z,98255.22
2022-08-22T11:27:40.924Z,98214.53
2022-08-22T11:30:18.750Z,98155.28
2022-08-22T11:32:59.425Z,98256.16
2022-08-22T11:35:35.373Z,98197.97
2022-08-22T11:38:10.922Z,98247.66
2022-08-22T11:40:56.001Z,98243.25
2022-08-22T11:43:22.651Z,98240.16
2022-08-22T11:45:53.479Z,98151.34
2022-08-22T11:48:40.510Z,98242.94
2022-08-22T11:51:51.056Z,98169.97
2022-08-22T11:54:46.042Z,98238.63
2022-08-22T11:57:16.541Z,98238.78
2022-08-22T11:59:43.395Z,98240.69
2022-08-22T12:02:26.588Z,98187.19
2022-08-22T12:05:03.772Z,98227.19
2022-08-22T12:08:21.331Z,98225.34
2022-08-22T12:11:02.664Z,98236.28
2022-08-22T12:14:06.216Z,98230.44
2022-08-22T12:17:02.073Z,98232.28
2022-08-22T12:20:16.478Z,98176.75
2022-08-22T12:22:51.186Z,98183.78
2022-08-22T12:25:18.034Z,98227.00
2022-08-22T12:27:55.117Z,98223.41
2022-08-22T12:30:38.807Z,98140.34
2022-08-22T12:33:25.514Z,98220.53
2022-08-22T12:36:09.494Z,98218.06
2022-08-22T12:38:57.026Z,98210.47
2022-08-22T12:42:04.143Z,98208.09
2022-08-22T12:44:36.363Z,98161.16
2022-08-22T12:47:17.278Z,98216.28
2022-08-22T12:50:06.108Z,98203.88
2022-08-22T12:52:45.162Z,98201.28
2022-08-22T12:55:27.448Z,98203.38
2022-08-22T12:57:57.458Z,98196.81
2022-08-22T13:00:43.937Z,98197.16
2022-08-22T13:03:18.151Z,98090.28
2022-08-22T13:05:59.766Z,98069.00
2022-08-22T13:08:39.729Z,98159.91
2022-08-22T13:11:12.442Z,98079.75
2022-08-22T13:13:56.774Z,98187.88
2022-08-22T13:16:26.347Z,98121.50
2022-08-22T13:19:07.815Z,98188.28
2022-08-22T13:21:46.838Z,98106.47
2022-08-22T13:24:22.584Z,98187.19
2022-08-22T13:27:10.773Z,98183.28
2022-08-22T13:29:48.402Z,98140.28
2022-08-22T13:32:27.743Z,98131.59
2022-08-22T13:34:57.453Z,98183.75
2022-08-22T13:37:36.439Z,98148.63
2022-08-22T13:40:08.945Z,98163.91
2022-08-22T13:42:44.998Z,98112.44
2022-08-22T13:45:24.190Z,98100.44
2022-08-22T13:47:56.898Z,98111.69
2022-08-22T13:50:27.452Z,97901.34
2022-08-22T13:53:04.234Z,98177.81
2022-08-22T13:55:57.443Z,98045.19
2022-08-22T13:58:37.797Z,98096.06
2022-08-22T14:01:28.677Z,98156.13
2022-08-22T14:04:19.971Z,98068.94
2022-08-22T14:07:02.662Z,98171.06
2022-08-22T14:09:49.119Z,98179.00
2022-08-22T14:12:23.620Z,98177.78
2022-08-22T14:14:57.253Z,98183.09
2022-08-22T14:17:33.859Z,98123.34
2022-08-22T14:20:13.285Z,98044.69
2022-08-22T14:23:13.579Z,98174.00
2022-08-22T14:25:42.575Z,98170.97
2022-08-22T14:28:27.450Z,98016.44
2022-08-22T14:31:03.623Z,98172.44
2022-08-22T14:33:35.449Z,98164.09
2022-08-22T14:36:11.460Z,98169.72
2022-08-22T14:38:46.500Z,98079.94
2022-08-22T14:41:52.941Z,98111.97
2022-08-22T14:44:27.812Z,98085.44
2022-08-22T14:47:03.761Z,98124.47
2022-08-22T14:49:35.362Z,98159.47
2022-08-22T14:52:07.286Z,98071.13
2022-08-22T14:54:37.182Z,98154.88
2022-08-22T14:57:10.383Z,98106.31
2022-08-22T14:59:45.463Z,98110.13
2022-08-22T15:02:17.796Z,98048.69
2022-08-22T15:04:51.541Z,98131.63
2022-08-22T15:07:32.187Z,98148.69
2022-08-22T15:10:17.660Z,98141.25
2022-08-22T15:12:54.378Z,98152.19
2022-08-22T15:15:41.216Z,98078.63
2022-08-22T15:18:19.193Z,98140.53
2022-08-22T15:20:52.076Z,97961.56
2022-08-22T15:23:21.723Z,98111.03
2022-08-22T15:26:05.207Z,98070.34
2022-08-22T15:28:49.814Z,98138.94
2022-08-22T15:31:20.688Z,98096.78
2022-08-22T15:33:48.431Z,98070.44
2022-08-22T15:36:20.437Z,97965.94
2022-08-22T15:38:54.459Z,98136.72
2022-08-22T15:41:31.364Z,98133.41
2022-08-22T15:44:02.727Z,98125.00
2022-08-22T15:46:32.682Z,98104.91
2022-08-22T15:49:11.113Z,98124.13
2022-08-22T15:51:42.680Z,98002.28
2022-08-22T15:54:24.785Z,98073.03
2022-08-22T15:56:52.187Z,98120.22
2022-08-22T15:59:53.574Z,97989.84
2022-08-22T16:02:55.327Z,98127.38
2022-08-22T16:05:27.663Z,98116.34
2022-08-22T16:07:57.319Z,98119.38
2022-08-22T16:10:23.827Z,98118.16
2022-08-22T16:13:27.604Z,98114.66
2022-08-22T16:16:01.546Z,98116.53
2022-08-22T16:18:34.340Z,98112.81
2022-08-22T16:21:13.454Z,98117.72
2022-08-22T16:23:55.601Z,98113.44
2022-08-22T16:26:31.386Z,98120.09
2022-08-22T16:29:37.712Z,98106.72
2022-08-22T16:32:11.700Z,98104.78
2022-08-22T16:34:41.463Z,98119.13
2022-08-22T16:37:14.135Z,98119.19
2022-08-22T16:39:40.873Z,98111.97
2022-08-22T16:42:13.545Z,98112.56
2022-08-22T16:44:45.601Z,98113.44
2022-08-22T16:47:30.691Z,98112.78
2022-08-22T16:50:03.684Z,98066.38
2022-08-22T16:52:30.341Z,98107.91
2022-08-22T16:55:05.718Z,98122.03
2022-08-22T16:58:09.830Z,98073.00
2022-08-22T17:00:36.650Z,98120.41
2022-08-22T17:03:18.153Z,98066.06
2022-08-22T17:06:22.467Z,98127.44
2022-08-22T17:09:04.341Z,98130.38
2022-08-22T17:11:56.297Z,98130.38
2022-08-22T17:14:49.026Z,98129.47
2022-08-22T17:17:49.435Z,98130.47
2022-08-22T17:20:27.841Z,98094.19
2022-08-22T17:22:57.766Z,98084.13
2022-08-22T17:25:50.079Z,98085.69
2022-08-22T17:28:35.167Z,98138.84
2022-08-22T17:31:11.678Z,98144.78
2022-08-22T17:33:41.299Z,98142.56
2022-08-22T17:36:26.994Z,98108.06
2022-08-22T17:39:29.086Z,98054.63
2022-08-22T17:42:23.793Z,98138.53
2022-08-22T17:45:25.725Z,98152.03
2022-08-22T17:48:05.260Z,98067.72
2022-08-22T17:50:42.674Z,98149.47
2022-08-22T17:53:23.091Z,98087.59
2022-08-22T17:55:55.909Z,98157.38
2022-08-22T17:58:31.693Z,98161.44
2022-08-22T18:01:20.209Z,98150.16
2022-08-22T18:03:57.420Z,98119.50
2022-08-22T18:06:28.817Z,98070.88
2022-08-22T18:09:15.616Z,98099.66
2022-08-22T18:11:45.570Z,98180.84
2022-08-22T18:14:25.181Z,98122.22
2022-08-22T18:16:54.189Z,98174.38
2022-08-22T18:19:23.841Z,98191.88
2022-08-22T18:22:22.696Z,98184.34
2022-08-22T18:25:01.486Z,98188.41
2022-08-22T18:27:47.402Z,98170.09
2022-08-22T18:30:19.803Z,98194.00
2022-08-22T18:32:59.702Z,98196.47
2022-08-22T18:35:40.156Z,98194.84
2022-08-22T18:38:22.377Z,98201.03
2022-08-22T18:41:07.401Z,98208.00
2022-08-22T18:43:44.961Z,98211.41
2022-08-22T18:46:51.649Z,98207.59
2022-08-22T18:49:18.715Z,98213.44
2022-08-22T18:52:05.194Z,98216.13
2022-08-22T18:55:06.100Z,98216.97
2022-08-22T18:57:44.922Z,98221.72
2022-08-22T19:00:43.746Z,98182.50
2022-08-22T19:03:25.540Z,98227.38
2022-08-22T19:06:32.116Z,98237.31
2022-08-22T19:09:20.280Z,98229.63
2022-08-22T19:12:07.106Z,98187.34
2022-08-22T19:15:00.354Z,98234.72
2022-08-22T19:17:55.829Z,98238.38
2022-08-22T19:20:29.613Z,98218.41
2022-08-22T19:23:33.950Z,98245.00
2022-08-22T19:26:24.544Z,98242.84
2022-08-22T19:29:14.586Z,98162.22
2022-08-22T19:31:50.464Z,98095.22
2022-08-22T19:34:26.439Z,98252.09
2022-08-22T19:37:11.333Z,98252.38
2022-08-22T19:40:00.747Z,98182.16
2022-08-22T19:42:37.150Z,98179.78
2022-08-22T19:45:19.299Z,98267.13
2022-08-22T19:48:00.352Z,98198.47
2022-08-22T19:50:34.767Z,97802.63
2022-08-22T19:53:47.616Z,98257.94
2022-08-22T19:56:41.934Z,98270.50
2022-08-22T19:59:22.987Z,98217.81
2022-08-22T20:01:52.697Z,98279.09
2022-08-22T20:04:50.624Z,98276.63
2022-08-22T20:07:35.440Z,98237.94
2022-08-22T20:10:17.295Z,98284.97
2022-08-22T20:13:09.294Z,98237.19
2022-08-22T20:16:01.019Z,98290.19
2022-08-22T20:19:15.489Z,98293.50
2022-08-22T20:22:00.998Z,98294.38
2022-08-22T20:24:49.060Z,98292.81
2022-08-22T20:27:27.767Z,98295.56
2022-08-22T20:30:15.285Z,98295.06
2022-08-22T20:32:50.534Z,98241.97
2022-08-22T20:35:42.580Z,98274.25
2022-08-22T20:38:17.104Z,98301.66
2022-08-22T20:41:21.036Z,98299.84
2022-08-22T20:44:04.328Z,98247.94
2022-08-22T20:46:53.723Z,98292.75
2022-08-22T20:49:21.986Z,98298.78
2022-08-22T20:52:00.631Z,98269.50
2022-08-22T20:54:31.356Z,98302.09
2022-08-22T20:57:10.796Z,98298.03
2022-08-22T20:59:41.197Z,98229.63
2022-08-22T21:02:29.767Z,98308.16
2022-08-22T21:05:27.356Z,98309.88
2022-08-22T21:08:13.869Z,98308.94
2022-08-22T21:10:45.608Z,98260.91
2022-08-22T21:13:21.382Z,98268.69
2022-08-22T21:16:00.740Z,98274.84
2022-08-22T21:18:35.161Z,98314.41
2022-08-22T21:21:12.734Z,98250.38
2022-08-22T21:24:00.813Z,98249.06
2022-08-22T21:26:35.000Z,98314.38
2022-08-22T21:29:10.569Z,98268.69
2022-08-22T21:31:42.878Z,98315.44
2022-08-22T21:34:48.159Z,98284.63
2022-08-22T21:37:27.203Z,98313.66
2022-08-22T21:40:05.622Z,98293.28
2022-08-22T21:42:36.107Z,98319.97
2022-08-22T21:45:10.123Z,98295.91
2022-08-22T21:47:40.217Z,98321.16
2022-08-22T21:50:16.271Z,98321.00
2022-08-22T21:53:00.576Z,98295.16
2022-08-22T21:55:43.319Z,98313.09
2022-08-22T21:58:35.750Z,98322.69
2022-08-22T22:01:36.804Z,98323.50
2022-08-22T22:04:09.387Z,98254.34
2022-08-22T22:06:39.001Z,98267.28
2022-08-22T22:09:05.708Z,98289.00
2022-08-22T22:11:35.305Z,98266.38
2022-08-22T22:14:04.970Z,98279.88
2022-08-22T22:16:34.354Z,98332.38
2022-08-22T22:19:08.982Z,98243.63
2022-08-22T22:21:43.056Z,98295.91
2022-08-22T22:24:20.959Z,98295.78
2022-08-22T22:26:49.959Z,98241.13
2022-08-22T22:29:22.985Z,98274.34
2022-08-22T22:31:51.954Z,98255.72
2022-08-22T22:34:31.370Z,98232.75
2022-08-22T22:36:58.050Z,98239.81
2022-08-22T22:39:36.064Z,98337.97
2022-08-22T22:42:04.795Z,98350.97
2022-08-22T22:44:31.447Z,98282.34
2022-08-22T22:46:59.377Z,98324.31
2022-08-22T22:49:32.737Z,98273.59
2022-08-22T22:52:00.778Z,98340.03
2022-08-22T22:54:27.837Z,98344.84
2022-08-22T22:56:56.881Z,98327.31
2022-08-22T22:59:25.594Z,98322.59
2022-08-22T23:02:06.334Z,98296.25
2022-08-22T23:04:34.787Z,98289.97
2022-08-22T23:07:01.743Z,98326.41
2022-08-22T23:09:38.021Z,98345.78
2022-08-22T23:12:09.530Z,98355.22
2022-08-22T23:14:36.168Z,98316.31
2022-08-22T23:17:04.325Z,98312.94
2022-08-22T23:19:31.130Z,98332.31
2022-08-22T23:21:59.530Z,98332.56
2022-08-22T23:24:29.422Z,98349.63
2022-08-22T23:26:58.135Z,98294.97
2022-08-22T23:29:25.584Z,98282.56
2022-08-22T23:31:56.860Z,98351.22
2022-08-22T23:34:33.168Z,98310.88
2022-08-22T23:37:01.977Z,98352.81
2022-08-22T23:39:34.599Z,98213.13
2022-08-22T23:42:02.290Z,98352.22
2022-08-22T23:44:32.619Z,98373.09
2022-08-22T23:46:59.946Z,98365.91
2022-08-22T23:49:29.619Z,98341.00
2022-08-22T23:51:56.948Z,98364.66
2022-08-22T23:54:24.012Z,98358.28
2022-08-22T23:56:53.786Z,98364.91
2022-08-22T23:59:30.845Z,98294.13
